Time;durP1;ratioP1;P1;durP2;ratioP2;P2;SDS_P1;SDS_P2;PMS_P1;PMS_P2;Temp;Humidity;BMP_temperature;BMP_pressure;BME280_temperature;BME280_humidity;BME280_pressure;Samples;Min_cycle;Max_cycle;Signal;HPM_P1;HPM_P2
2022/08/28 00:00:29;;;;;;;;;;;;;;;;;;5164108;27;20005;-91
2022/08/28 00:02:55;;;;;;;;;;;;;;;;;;5162388;27;19915;-90
2022/08/28 00:05:23;;;;;;;;;;;;;;;;;;5162296;27;19915;-90
2022/08/28 00:07:49;;;;;;;;;;;;;;;;;;5161676;27;19915;-89
2022/08/28 00:10:19;;;;;;;;;;;;;;;;;;5141184;27;20269;-92
2022/08/28 00:12:46;;;;;;;;;;;;;;;;;;5141195;27;19911;-92
2022/08/28 00:15:19;;;;;;;;;;;;;;;;;;5159687;27;19926;-91
2022/08/28 00:17:45;;;;;;;;;;;;;;;;;;5141922;27;19918;-91
2022/08/28 00:20:11;;;;;;;;;;;;;;;;;;5141447;27;19922;-91
2022/08/28 00:22:37;;;;;;;;;;;;;;;;;;5159164;27;19967;-90
2022/08/28 00:27:51;;;;;;;;;;;;;;;;;;5313218;22;19931;-90
2022/08/28 00:30:25;;;;;;;;;;;;;;;;;;5057197;28;19917;-91
2022/08/28 00:32:52;;;;;;;;;;;;;;;;;;5057109;28;19923;-91
2022/08/28 00:35:18;;;;;;;;;;;;;;;;;;5057078;28;20391;-91
2022/08/28 00:37:46;;;;;;;;;;;;;;;;;;5057114;28;19920;-90
2022/08/28 00:40:13;;;;;;;;;;;;;;;;;;5074775;28;19917;-91
2022/08/28 00:42:38;;;;;;;;;;;;;;;;;;5057855;28;19916;-90
2022/08/28 00:45:04;;;;;;;;;;;;;;;;;;5056858;28;19916;-90
2022/08/28 00:47:30;;;;;;;;;;;;;;;;;;5074045;28;19927;-92
2022/08/28 00:49:55;;;;;;;;;;;;;;;;;;5056344;28;19917;-89
2022/08/28 00:52:23;;;;;;;;;;;;;;;;;;5056136;28;19912;-91
2022/08/28 00:54:58;;;;;;;;;;;;;;;;;;5055951;28;20007;-92
2022/08/28 00:57:25;;;;;;;;;;;;;;;;;;5056728;28;19912;-90
2022/08/28 00:59:51;;;;;;;;;;;;;;;;;;5074455;28;19946;-92
2022/08/28 01:02:16;;;;;;;;;;;;;;;;;;5056233;28;20448;-90
2022/08/28 01:04:42;;;;;;;;;;;;;;;;;;5055955;28;19939;-90
2022/08/28 01:07:09;;;;;;;;;;;;;;;;;;5055166;28;20011;-91
2022/08/28 01:09:36;;;;;;;;;;;;;;;;;;5074148;28;20011;-89
2022/08/28 01:12:06;;;;;;;;;;;;;;;;;;5056066;28;20019;-90
2022/08/28 01:14:35;;;;;;;;;;;;;;;;;;5055954;28;19921;-90
2022/08/28 01:17:01;;;;;;;;;;;;;;;;;;5056112;28;20390;-90
2022/08/28 01:19:36;;;;;;;;;;;;;;;;;;5073833;28;19981;-90
2022/08/28 01:22:11;;;;;;;;;;;;;;;;;;5073919;28;20429;-90
2022/08/28 01:24:37;;;;;;;;;;;;;;;;;;5073666;28;19924;-90
2022/08/28 01:27:02;;;;;;;;;;;;;;;;;;5052448;28;19920;-91
2022/08/28 01:29:28;;;;;;;;;;;;;;;;;;5053645;28;19943;-91
2022/08/28 01:31:56;;;;;;;;;;;;;;;;;;5053962;28;19966;-90
2022/08/28 01:34:22;;;;;;;;;;;;;;;;;;5052267;28;20390;-90
2022/08/28 01:36:47;;;;;;;;;;;;;;;;;;5052157;28;20015;-91
2022/08/28 01:39:15;;;;;;;;;;;;;;;;;;5053392;28;19977;-90
2022/08/28 01:41:41;;;;;;;;;;;;;;;;;;5053808;28;19924;-90
2022/08/28 01:44:07;;;;;;;;;;;;;;;;;;5052929;28;19912;-90
2022/08/28 01:46:32;;;;;;;;;;;;;;;;;;5053143;28;19927;-90
2022/08/28 01:48:59;;;;;;;;;;;;;;;;;;5051856;28;19995;-91
2022/08/28 01:51:24;;;;;;;;;;;;;;;;;;5049965;28;19936;-92
2022/08/28 01:53:49;;;;;;;;;;;;;;;;;;5052294;28;19917;-90
2022/08/28 01:56:15;;;;;;;;;;;;;;;;;;5053660;28;19923;-91
2022/08/28 01:58:41;;;;;;;;;;;;;;;;;;5052466;28;19939;-91
2022/08/28 02:01:14;;;;;;;;;;;;;;;;;;5052598;28;19917;-91
2022/08/28 02:03:41;;;;;;;;;;;;;;;;;;5052104;28;19920;-91
2022/08/28 02:06:07;;;;;;;;;;;;;;;;;;5052820;28;20012;-90
2022/08/28 02:08:32;;;;;;;;;;;;;;;;;;5051901;28;20021;-90
2022/08/28 02:10:58;;;;;;;;;;;;;;;;;;5061343;28;19920;-92
2022/08/28 02:13:23;;;;;;;;;;;;;;;;;;5064773;28;19948;-91
2022/08/28 02:15:50;;;;;;;;;;;;;;;;;;5063074;28;19901;-90
2022/08/28 02:18:17;;;;;;;;;;;;;;;;;;5068270;28;19960;-91
2022/08/28 02:20:43;;;;;;;;;;;;;;;;;;5055430;28;19917;-90
2022/08/28 02:23:08;;;;;;;;;;;;;;;;;;5054120;28;19982;-91
2022/08/28 02:25:34;;;;;;;;;;;;;;;;;;5052231;28;20295;-91
2022/08/28 02:27:59;;;;;;;;;;;;;;;;;;5069929;28;19921;-90
2022/08/28 02:30:25;;;;;;;;;;;;;;;;;;5101965;22;19930;-90
2022/08/28 02:32:50;;;;;;;;;;;;;;;;;;5132594;27;20014;-92
2022/08/28 02:35:17;;;;;;;;;;;;;;;;;;5136192;27;19916;-89
2022/08/28 02:37:44;;;;;;;;;;;;;;;;;;5136467;27;19919;-91
2022/08/28 02:40:12;;;;;;;;;;;;;;;;;;5136719;27;20511;-91
2022/08/28 02:42:38;;;;;;;;;;;;;;;;;;5137993;27;19923;-91
2022/08/28 02:45:04;;;;;;;;;;;;;;;;;;5142209;27;19926;-91
2022/08/28 02:47:30;;;;;;;;;;;;;;;;;;5144749;27;20006;-92
2022/08/28 02:49:57;;;;;;;;;;;;;;;;;;5142055;27;19958;-92
2022/08/28 02:52:23;;;;;;;;;;;;;;;;;;5142381;27;19916;-92
2022/08/28 02:54:49;;;;;;;;;;;;;;;;;;5141348;27;19925;-92
2022/08/28 02:57:14;;;;;;;;;;;;;;;;;;5140518;27;20010;-91
2022/08/28 02:59:40;;;;;;;;;;;;;;;;;;5140228;27;20334;-90
2022/08/28 03:02:06;;;;;;;;;;;;;;;;;;5140863;27;20370;-91
2022/08/28 03:04:37;;;;;;;;;;;;;;;;;;5141674;27;19915;-91
2022/08/28 03:07:03;;;;;;;;;;;;;;;;;;5144778;27;19968;-90
2022/08/28 03:09:28;;;;;;;;;;;;;;;;;;5141653;27;19922;-90
2022/08/28 03:11:54;;;;;;;;;;;;;;;;;;5142962;27;19919;-91
2022/08/28 03:14:20;;;;;;;;;;;;;;;;;;5141530;27;19928;-91
2022/08/28 03:16:46;;;;;;;;;;;;;;;;;;5141937;27;19976;-92
2022/08/28 03:19:11;;;;;;;;;;;;;;;;;;5141926;27;20338;-92
2022/08/28 03:21:37;;;;;;;;;;;;;;;;;;5139750;27;19920;-92
2022/08/28 03:24:03;;;;;;;;;;;;;;;;;;5139588;27;19915;-93
2022/08/28 03:26:29;;;;;;;;;;;;;;;;;;5144807;27;19979;-91
2022/08/28 03:28:56;;;;;;;;;;;;;;;;;;5139958;27;19969;-91
2022/08/28 03:31:23;;;;;;;;;;;;;;;;;;5139113;27;19923;-91
2022/08/28 03:33:48;;;;;;;;;;;;;;;;;;5139641;27;20290;-93
2022/08/28 03:36:16;;;;;;;;;;;;;;;;;;5139058;27;19921;-92
2022/08/28 03:38:41;;;;;;;;;;;;;;;;;;5140261;27;19926;-92
2022/08/28 03:41:12;;;;;;;;;;;;;;;;;;5140353;27;20334;-90
2022/08/28 03:43:39;;;;;;;;;;;;;;;;;;5139564;27;19919;-91
2022/08/28 03:46:05;;;;;;;;;;;;;;;;;;5140161;27;19915;-92
2022/08/28 03:48:32;;;;;;;;;;;;;;;;;;5139785;27;19916;-92
2022/08/28 03:50:59;;;;;;;;;;;;;;;;;;5138202;27;19976;-91
2022/08/28 03:53:26;;;;;;;;;;;;;;;;;;5139321;27;19919;-92
2022/08/28 03:55:53;;;;;;;;;;;;;;;;;;5137683;27;19915;-92
2022/08/28 03:58:18;;;;;;;;;;;;;;;;;;5138334;27;19961;-90
2022/08/28 04:00:45;;;;;;;;;;;;;;;;;;5140370;27;19968;-91
2022/08/28 04:03:13;;;;;;;;;;;;;;;;;;5140957;27;19926;-91
2022/08/28 04:05:43;;;;;;;;;;;;;;;;;;5140929;27;20366;-90
2022/08/28 04:08:09;;;;;;;;;;;;;;;;;;5120503;27;19962;-89
2022/08/28 04:10:35;;;;;;;;;;;;;;;;;;5137871;27;19923;-92
2022/08/28 04:13:01;;;;;;;;;;;;;;;;;;5140370;27;19911;-90
2022/08/28 04:15:27;;;;;;;;;;;;;;;;;;5138349;27;19922;-91
2022/08/28 04:17:53;;;;;;;;;;;;;;;;;;5139443;27;19915;-91
2022/08/28 04:20:19;;;;;;;;;;;;;;;;;;5139380;27;19937;-91
2022/08/28 04:22:46;;;;;;;;;;;;;;;;;;5138747;27;20403;-92
2022/08/28 04:25:12;;;;;;;;;;;;;;;;;;5139381;27;19911;-90
2022/08/28 04:27:38;;;;;;;;;;;;;;;;;;5138813;27;19937;-90
2022/08/28 04:30:04;;;;;;;;;;;;;;;;;;5137085;27;19925;-91
2022/08/28 04:32:30;;;;;;;;;;;;;;;;;;5138843;27;20010;-90
2022/08/28 04:34:55;;;;;;;;;;;;;;;;;;5135097;27;20018;-92
2022/08/28 04:37:21;;;;;;;;;;;;;;;;;;5134741;27;19916;-92
2022/08/28 04:39:47;;;;;;;;;;;;;;;;;;5135199;27;20282;-91
2022/08/28 04:42:13;;;;;;;;;;;;;;;;;;5134687;27;19915;-90
2022/08/28 04:44:38;;;;;;;;;;;;;;;;;;5134464;27;19916;-91
2022/08/28 04:47:04;;;;;;;;;;;;;;;;;;5136640;27;19922;-91
2022/08/28 04:49:29;;;;;;;;;;;;;;;;;;5134047;27;20144;-91
2022/08/28 04:51:55;;;;;;;;;;;;;;;;;;5135424;27;19911;-90
2022/08/28 04:54:20;;;;;;;;;;;;;;;;;;5137515;27;19964;-90
2022/08/28 04:56:45;;;;;;;;;;;;;;;;;;5134149;27;19975;-89
2022/08/28 04:59:11;;;;;;;;;;;;;;;;;;5136358;27;19964;-90
2022/08/28 05:01:38;;;;;;;;;;;;;;;;;;5135629;27;19919;-90
2022/08/28 05:04:04;;;;;;;;;;;;;;;;;;5135295;27;19939;-92
2022/08/28 05:06:30;;;;;;;;;;;;;;;;;;5135837;27;19927;-91
2022/08/28 05:08:57;;;;;;;;;;;;;;;;;;5134992;27;19915;-92
2022/08/28 05:11:23;;;;;;;;;;;;;;;;;;5115583;27;19978;-90
2022/08/28 05:13:49;;;;;;;;;;;;;;;;;;5113356;28;20370;-90
2022/08/28 05:16:15;;;;;;;;;;;;;;;;;;5114262;28;19915;-91
2022/08/28 05:18:41;;;;;;;;;;;;;;;;;;5114376;28;19976;-91
2022/08/28 05:21:13;;;;;;;;;;;;;;;;;;5114751;28;19923;-90
2022/08/28 05:23:39;;;;;;;;;;;;;;;;;;5118547;27;19984;-90
2022/08/28 05:26:05;;;;;;;;;;;;;;;;;;5127984;27;19915;-92
2022/08/28 05:28:31;;;;;;;;;;;;;;;;;;5113525;28;19915;-91
2022/08/28 05:31:06;;;;;;;;;;;;;;;;;;5112754;28;19965;-92
2022/08/28 05:33:32;;;;;;;;;;;;;;;;;;5113306;28;19915;-91
2022/08/28 05:36:03;;;;;;;;;;;;;;;;;;5114422;28;19995;-91
2022/08/28 05:38:28;;;;;;;;;;;;;;;;;;5112988;28;19955;-90
2022/08/28 05:40:54;;;;;;;;;;;;;;;;;;5112651;28;19920;-91
2022/08/28 05:43:19;;;;;;;;;;;;;;;;;;5124173;27;19936;-91
2022/08/28 05:45:45;;;;;;;;;;;;;;;;;;5133644;27;20393;-91
2022/08/28 05:48:10;;;;;;;;;;;;;;;;;;5131452;28;20017;-91
2022/08/28 05:50:38;;;;;;;;;;;;;;;;;;5114700;28;19919;-91
2022/08/28 05:53:03;;;;;;;;;;;;;;;;;;5112890;28;19916;-92
2022/08/28 05:55:29;;;;;;;;;;;;;;;;;;5114921;28;19920;-92
2022/08/28 05:58:27;;;;;;;;;;;;;;;;;;5114287;28;19922;-90
2022/08/28 06:00:44;;;;;;;;;;;;;;;;;;5114338;28;20318;-90
2022/08/28 06:03:10;;;;;;;;;;;;;;;;;;5114869;28;19920;-91
2022/08/28 06:05:37;;;;;;;;;;;;;;;;;;5114125;28;20025;-92
2022/08/28 06:08:02;;;;;;;;;;;;;;;;;;5112720;28;19915;-91
2022/08/28 06:10:28;;;;;;;;;;;;;;;;;;5116847;28;19939;-91
2022/08/28 06:12:54;;;;;;;;;;;;;;;;;;5128983;27;19908;-93
2022/08/28 06:15:19;;;;;;;;;;;;;;;;;;5131098;27;19925;-93
2022/08/28 06:17:45;;;;;;;;;;;;;;;;;;5130611;27;19931;-94
2022/08/28 06:20:10;;;;;;;;;;;;;;;;;;5143699;27;19924;-92
2022/08/28 06:22:40;;;;;;;;;;;;;;;;;;5131301;27;20421;-92
2022/08/28 06:25:09;;;;;;;;;;;;;;;;;;5139562;27;20273;-93
2022/08/28 06:27:38;;;;;;;;;;;;;;;;;;5137700;27;19922;-94
2022/08/28 06:30:03;;;;;;;;;;;;;;;;;;5128271;27;19919;-93
2022/08/28 06:32:29;;;;;;;;;;;;;;;;;;5136003;27;19972;-93
2022/08/28 06:34:54;;;;;;;;;;;;;;;;;;5129970;27;20402;-94
2022/08/28 06:37:21;;;;;;;;;;;;;;;;;;5127515;27;20489;-94
2022/08/28 06:39:46;;;;;;;;;;;;;;;;;;5133134;27;19919;-93
2022/08/28 06:42:12;;;;;;;;;;;;;;;;;;5129785;27;20047;-94
2022/08/28 06:44:38;;;;;;;;;;;;;;;;;;5130516;27;19919;-94
2022/08/28 06:47:05;;;;;;;;;;;;;;;;;;5121708;27;20372;-95
2022/08/28 06:49:33;;;;;;;;;;;;;;;;;;5123617;27;19929;-94
2022/08/28 06:51:58;;;;;;;;;;;;;;;;;;5124961;27;20332;-93
2022/08/28 06:54:24;;;;;;;;;;;;;;;;;;5119416;27;19931;-94
2022/08/28 06:56:50;;;;;;;;;;;;;;;;;;5124938;27;20710;-94
2022/08/28 06:59:15;;;;;;;;;;;;;;;;;;5119478;27;19924;-94
2022/08/28 07:01:41;;;;;;;;;;;;;;;;;;5124116;27;19927;-93
2022/08/28 07:04:09;;;;;;;;;;;;;;;;;;5124766;27;19912;-93
2022/08/28 07:06:38;;;;;;;;;;;;;;;;;;5134911;27;19926;-94
2022/08/28 07:09:05;;;;;;;;;;;;;;;;;;5140140;27;19920;-93
2022/08/28 07:11:31;;;;;;;;;;;;;;;;;;5128607;28;19924;-94
2022/08/28 07:13:59;;;;;;;;;;;;;;;;;;5127856;28;19916;-92
2022/08/28 07:16:44;;;;;;;;;;;;;;;;;;5114177;27;19927;-94
2022/08/28 07:19:11;;;;;;;;;;;;;;;;;;5141520;27;20006;-92
2022/08/28 07:21:37;;;;;;;;;;;;;;;;;;5148952;27;19955;-94
2022/08/28 07:24:04;;;;;;;;;;;;;;;;;;5149791;27;19916;-94
2022/08/28 07:26:29;;;;;;;;;;;;;;;;;;5146886;27;19916;-93
2022/08/28 07:28:55;;;;;;;;;;;;;;;;;;5142271;27;19922;-93
2022/08/28 07:31:22;;;;;;;;;;;;;;;;;;5139647;27;19926;-94
2022/08/28 07:33:48;;;;;;;;;;;;;;;;;;5140051;27;19925;-94
2022/08/28 07:36:15;;;;;;;;;;;;;;;;;;5139850;27;19972;-95
2022/08/28 07:38:41;;;;;;;;;;;;;;;;;;5141224;27;20012;-94
2022/08/28 07:41:18;;;;;;;;;;;;;;;;;;5140278;27;19975;-95
2022/08/28 07:46:28;;;;;;;;;;;;;;;;;;5134401;27;19941;-94
2022/08/28 07:49:00;;;;;;;;;;;;;;;;;;5155611;27;19916;-94
2022/08/28 07:51:29;;;;;;;;;;;;;;;;;;5151641;27;19947;-93
2022/08/28 07:53:56;;;;;;;;;;;;;;;;;;5135797;27;19947;-94
2022/08/28 07:56:29;;;;;;;;;;;;;;;;;;5131791;28;19983;-93
2022/08/28 07:58:57;;;;;;;;;;;;;;;;;;5113877;28;19920;-94
2022/08/28 08:01:23;;;;;;;;;;;;;;;;;;5128552;28;19916;-95
2022/08/28 08:03:50;;;;;;;;;;;;;;;;;;5128085;28;19916;-94
2022/08/28 08:06:16;;;;;;;;;;;;;;;;;;5134986;28;20010;-94
2022/08/28 08:08:42;;;;;;;;;;;;;;;;;;5110309;28;19926;-94
2022/08/28 08:11:14;;;;;;;;;;;;;;;;;;5125256;28;19916;-95
2022/08/28 08:13:39;;;;;;;;;;;;;;;;;;5109380;28;20412;-94
2022/08/28 08:16:06;;;;;;;;;;;;;;;;;;5125525;28;19916;-93
2022/08/28 08:18:40;;;;;;;;;;;;;;;;;;5129070;28;19916;-94
2022/08/28 08:21:08;;;;;;;;;;;;;;;;;;5118481;28;19919;-94
2022/08/28 08:23:34;;;;;;;;;;;;;;;;;;5129036;28;20259;-96
2022/08/28 08:26:04;;;;;;;;;;;;;;;;;;5144209;27;20277;-92
2022/08/28 08:28:32;;;;;;;;;;;;;;;;;;5144840;27;19957;-92
2022/08/28 08:31:27;;;;;;;;;;;;;;;;;;5138921;27;19975;-92
2022/08/28 08:34:00;;;;;;;;;;;;;;;;;;5125307;27;19915;-91
2022/08/28 08:36:26;;;;;;;;;;;;;;;;;;5143725;27;19926;-91
2022/08/28 08:38:53;;;;;;;;;;;;;;;;;;5145011;27;19916;-92
2022/08/28 08:41:24;;;;;;;;;;;;;;;;;;5145706;27;19922;-92
2022/08/28 08:43:53;;;;;;;;;;;;;;;;;;5135991;27;19924;-92
2022/08/28 08:46:22;;;;;;;;;;;;;;;;;;5125340;27;19922;-93
2022/08/28 08:48:49;;;;;;;;;;;;;;;;;;5123010;28;19941;-92
2022/08/28 08:51:22;;;;;;;;;;;;;;;;;;5122684;28;19916;-93
2022/08/28 08:54:02;;;;;;;;;;;;;;;;;;5126914;28;20365;-92
2022/08/28 08:56:33;;;;;;;;;;;;;;;;;;5127380;28;19923;-92
2022/08/28 08:59:11;;;;;;;;;;;;;;;;;;5111237;28;19943;-92
2022/08/28 09:01:40;;;;;;;;;;;;;;;;;;5121612;28;19920;-94
2022/08/28 09:04:19;;;;;;;;;;;;;;;;;;5455385;22;19932;-93
2022/08/28 09:07:04;;;;;;;;;;;;;;;;;;5058294;28;19923;-93
2022/08/28 09:09:53;;;;;;;;;;;;;;;;;;5074049;28;19927;-92
2022/08/28 09:12:19;;;;;;;;;;;;;;;;;;5043632;28;20019;-93
2022/08/28 09:15:03;;;;;;;;;;;;;;;;;;5037615;28;20010;-93
2022/08/28 10:16:24;;;;;;;;;;;;;;;;;;5087291;27;2391784;-91
2022/08/28 10:18:50;;;;;;;;;;;;;;;;;;5135320;27;19965;-93
2022/08/28 10:21:15;;;;;;;;;;;;;;;;;;5133353;28;19916;-93
2022/08/28 10:24:07;;;;;;;;;;;;;;;;;;5132441;28;20369;-92
2022/08/28 10:26:51;;;;;;;;;;;;;;;;;;5113996;28;19955;-93
2022/08/28 10:29:44;;;;;;;;;;;;;;;;;;5140339;27;20374;-92
2022/08/28 10:32:09;;;;;;;;;;;;;;;;;;5134707;27;20357;-93
2022/08/28 10:34:35;;;;;;;;;;;;;;;;;;5134256;27;19915;-93
2022/08/28 10:37:26;;;;;;;;;;;;;;;;;;5136572;27;19965;-92
2022/08/28 10:39:53;;;;;;;;;;;;;;;;;;5099772;28;20386;-93
2022/08/28 10:42:35;;;;;;;;;;;;;;;;;;5113782;28;19915;-92
2022/08/28 10:45:07;;;;;;;;;;;;;;;;;;5148368;27;19925;-93
2022/08/28 10:47:35;;;;;;;;;;;;;;;;;;5173630;27;19915;-93
2022/08/28 10:50:08;;;;;;;;;;;;;;;;;;5153494;27;20377;-92
2022/08/28 10:52:40;;;;;;;;;;;;;;;;;;5173336;27;19919;-92
2022/08/28 10:55:12;;;;;;;;;;;;;;;;;;5173602;27;20323;-92
2022/08/28 10:57:43;;;;;;;;;;;;;;;;;;5154735;27;19915;-93
2022/08/28 11:00:14;;;;;;;;;;;;;;;;;;5173173;27;19941;-92
2022/08/28 11:02:42;;;;;;;;;;;;;;;;;;5139338;27;20340;-93
2022/08/28 11:05:09;;;;;;;;;;;;;;;;;;5135851;27;19920;-92
2022/08/28 11:07:46;;;;;;;;;;;;;;;;;;5114382;28;19923;-92
2022/08/28 11:10:34;;;;;;;;;;;;;;;;;;5137594;27;19938;-93
2022/08/28 11:13:00;;;;;;;;;;;;;;;;;;5154463;27;19918;-93
2022/08/28 11:15:37;;;;;;;;;;;;;;;;;;5152510;27;19908;-92
2022/08/28 11:18:06;;;;;;;;;;;;;;;;;;5147679;28;19920;-93
2022/08/28 11:20:31;;;;;;;;;;;;;;;;;;5146532;27;19940;-93
2022/08/28 11:23:15;;;;;;;;;;;;;;;;;;5130444;27;20014;-94
2022/08/28 11:25:40;;;;;;;;;;;;;;;;;;5133008;27;19922;-92
2022/08/28 11:30:58;;;;;;;;;;;;;;;;;;5096002;22;20374;-92
2022/08/28 11:33:36;;;;;;;;;;;;;;;;;;5059903;28;19940;-93
2022/08/28 11:36:02;;;;;;;;;;;;;;;;;;5060761;28;19916;-92
2022/08/28 11:38:40;;;;;;;;;;;;;;;;;;5060422;28;20022;-93
2022/08/28 11:41:26;;;;;;;;;;;;;;;;;;5064019;28;19917;-93
2022/08/28 11:44:07;;;;;;;;;;;;;;;;;;5091587;22;19928;-94
2022/08/28 11:46:38;;;;;;;;;;;;;;;;;;5083081;28;19971;-93
2022/08/28 11:49:27;;;;;;;;;;;;;;;;;;5083072;28;19917;-92
2022/08/28 11:52:06;;;;;;;;;;;;;;;;;;5064033;28;19916;-92
2022/08/28 11:57:09;;;;;;;;;;;;;;;;;;5105416;28;19924;-93
2022/08/28 11:59:44;;;;;;;;;;;;;;;;;;5086136;28;19923;-91
2022/08/28 12:02:28;;;;;;;;;;;;;;;;;;5085020;28;19916;-93
2022/08/28 12:04:54;;;;;;;;;;;;;;;;;;5101500;28;19974;-92
2022/08/28 12:07:20;;;;;;;;;;;;;;;;;;5084835;28;19920;-93
2022/08/28 12:09:47;;;;;;;;;;;;;;;;;;5086714;28;19935;-93
2022/08/28 12:12:21;;;;;;;;;;;;;;;;;;5087306;28;19923;-91
2022/08/28 12:14:47;;;;;;;;;;;;;;;;;;5088627;28;19912;-93
2022/08/28 12:17:21;;;;;;;;;;;;;;;;;;5100261;28;19916;-92
2022/08/28 12:20:09;;;;;;;;;;;;;;;;;;5100434;28;19923;-92
2022/08/28 12:22:55;;;;;;;;;;;;;;;;;;5081753;28;19912;-91
2022/08/28 12:25:34;;;;;;;;;;;;;;;;;;5082737;28;19947;-94
2022/08/28 12:28:09;;;;;;;;;;;;;;;;;;5082928;28;19920;-91
2022/08/28 12:30:43;;;;;;;;;;;;;;;;;;5099619;28;19916;-92
2022/08/28 12:33:23;;;;;;;;;;;;;;;;;;5101482;28;20424;-92
2022/08/28 12:35:49;;;;;;;;;;;;;;;;;;5098968;28;19923;-91
2022/08/28 12:38:19;;;;;;;;;;;;;;;;;;5082966;28;19962;-91
2022/08/28 12:40:52;;;;;;;;;;;;;;;;;;5104403;28;20439;-94
2022/08/28 12:43:30;;;;;;;;;;;;;;;;;;5106269;28;19939;-92
2022/08/28 12:46:07;;;;;;;;;;;;;;;;;;5105564;28;19987;-92
2022/08/28 12:48:45;;;;;;;;;;;;;;;;;;5094870;28;19916;-91
2022/08/28 12:51:12;;;;;;;;;;;;;;;;;;5098307;28;19920;-93
2022/08/28 12:53:42;;;;;;;;;;;;;;;;;;5105359;28;19924;-92
2022/08/28 12:56:10;;;;;;;;;;;;;;;;;;5105411;28;19987;-92
2022/08/28 12:58:38;;;;;;;;;;;;;;;;;;5083267;28;19999;-91
2022/08/28 13:01:14;;;;;;;;;;;;;;;;;;5100100;28;19928;-92
2022/08/28 13:03:41;;;;;;;;;;;;;;;;;;5103461;28;19927;-93
2022/08/28 13:06:08;;;;;;;;;;;;;;;;;;5084099;28;19973;-92
2022/08/28 13:08:35;;;;;;;;;;;;;;;;;;5098393;28;19924;-92
2022/08/28 13:11:00;;;;;;;;;;;;;;;;;;5079297;28;19920;-93
2022/08/28 13:13:46;;;;;;;;;;;;;;;;;;5096934;28;19967;-93
2022/08/28 13:16:31;;;;;;;;;;;;;;;;;;5095023;28;20367;-94
2022/08/28 13:19:03;;;;;;;;;;;;;;;;;;5098222;28;19920;-93
2022/08/28 13:21:30;;;;;;;;;;;;;;;;;;5099045;28;19966;-91
2022/08/28 13:23:58;;;;;;;;;;;;;;;;;;5099845;28;20371;-92
2022/08/28 13:26:29;;;;;;;;;;;;;;;;;;5098040;28;19941;-91
2022/08/28 13:29:03;;;;;;;;;;;;;;;;;;5100872;28;20405;-92
2022/08/28 13:31:41;;;;;;;;;;;;;;;;;;5102290;28;19916;-91
2022/08/28 13:34:13;;;;;;;;;;;;;;;;;;5102599;28;20370;-93
2022/08/28 13:36:45;;;;;;;;;;;;;;;;;;5081249;28;20424;-93
2022/08/28 13:39:12;;;;;;;;;;;;;;;;;;5105549;28;19981;-91
2022/08/28 13:41:39;;;;;;;;;;;;;;;;;;5101525;28;19916;-91
2022/08/28 13:44:07;;;;;;;;;;;;;;;;;;5103223;28;19927;-92
2022/08/28 13:46:37;;;;;;;;;;;;;;;;;;5068732;28;20370;-93
2022/08/28 13:49:05;;;;;;;;;;;;;;;;;;5083155;28;20011;-94
2022/08/28 13:51:51;;;;;;;;;;;;;;;;;;5102487;28;19935;-92
2022/08/28 13:54:19;;;;;;;;;;;;;;;;;;5084089;28;19916;-95
2022/08/28 13:56:46;;;;;;;;;;;;;;;;;;5079822;28;19920;-92
2022/08/28 14:04:46;;;;;;;;;;;;;;;;;;5019243;28;20391;-94
2022/08/28 14:07:12;;;;;;;;;;;;;;;;;;5020959;28;19917;-90
2022/08/28 14:09:38;;;;;;;;;;;;;;;;;;5017687;28;19914;-91
2022/08/28 14:12:04;;;;;;;;;;;;;;;;;;5016509;28;20004;-91
2022/08/28 14:14:31;;;;;;;;;;;;;;;;;;5015341;28;19917;-90
2022/08/28 14:17:00;;;;;;;;;;;;;;;;;;5017610;28;20368;-92
2022/08/28 14:19:26;;;;;;;;;;;;;;;;;;5012795;28;20020;-92
2022/08/28 14:21:52;;;;;;;;;;;;;;;;;;5019828;28;19953;-92
2022/08/28 14:24:24;;;;;;;;;;;;;;;;;;5032924;28;19918;-92
2022/08/28 14:26:49;;;;;;;;;;;;;;;;;;5029097;28;19925;-91
2022/08/28 14:29:17;;;;;;;;;;;;;;;;;;5013972;28;19921;-92
2022/08/28 14:31:43;;;;;;;;;;;;;;;;;;5014214;28;19918;-93
2022/08/28 14:34:10;;;;;;;;;;;;;;;;;;5013951;28;20154;-91
2022/08/28 14:36:36;;;;;;;;;;;;;;;;;;5013744;28;19917;-91
2022/08/28 14:39:03;;;;;;;;;;;;;;;;;;5013862;28;19957;-92
2022/08/28 14:41:28;;;;;;;;;;;;;;;;;;5013988;28;19917;-92
2022/08/28 14:43:54;;;;;;;;;;;;;;;;;;5029086;28;19917;-90
2022/08/28 14:46:27;;;;;;;;;;;;;;;;;;5014308;28;19917;-92
2022/08/28 14:48:54;;;;;;;;;;;;;;;;;;5029072;28;19964;-93
2022/08/28 14:51:19;;;;;;;;;;;;;;;;;;5029605;28;19917;-92
2022/08/28 14:53:45;;;;;;;;;;;;;;;;;;5014159;28;19944;-91
2022/08/28 14:56:11;;;;;;;;;;;;;;;;;;5012800;28;19924;-91
2022/08/28 14:58:36;;;;;;;;;;;;;;;;;;5014185;28;19917;-91
2022/08/28 15:01:03;;;;;;;;;;;;;;;;;;5014225;28;20064;-91
2022/08/28 15:03:28;;;;;;;;;;;;;;;;;;5032921;28;20350;-92
2022/08/28 15:06:04;;;;;;;;;;;;;;;;;;5016989;28;19960;-90
2022/08/28 15:08:30;;;;;;;;;;;;;;;;;;5018328;28;20396;-91
2022/08/28 15:10:55;;;;;;;;;;;;;;;;;;5019424;28;19921;-91
2022/08/28 15:13:21;;;;;;;;;;;;;;;;;;5054962;28;19921;-92
2022/08/28 15:15:47;;;;;;;;;;;;;;;;;;5040599;28;19909;-90
2022/08/28 15:18:14;;;;;;;;;;;;;;;;;;5038632;28;19907;-94
2022/08/28 15:20:40;;;;;;;;;;;;;;;;;;5052018;28;19918;-95
2022/08/28 15:23:07;;;;;;;;;;;;;;;;;;5027687;28;19945;-93
2022/08/28 15:25:35;;;;;;;;;;;;;;;;;;5024461;28;20369;-94
2022/08/28 15:28:00;;;;;;;;;;;;;;;;;;5021293;28;19918;-95
2022/08/28 15:30:26;;;;;;;;;;;;;;;;;;5005735;28;19949;-93
2022/08/28 15:32:54;;;;;;;;;;;;;;;;;;5023811;28;19923;-94
2022/08/28 15:35:20;;;;;;;;;;;;;;;;;;5038603;28;20296;-92
2022/08/28 15:37:47;;;;;;;;;;;;;;;;;;5021275;28;19925;-94
2022/08/28 15:42:58;;;;;;;;;;;;;;;;;;5022182;28;19941;-92
2022/08/28 15:45:25;;;;;;;;;;;;;;;;;;5025156;28;19918;-94
2022/08/28 15:47:50;;;;;;;;;;;;;;;;;;5021632;28;19917;-91
2022/08/28 15:50:16;;;;;;;;;;;;;;;;;;5040041;28;19944;-93
2022/08/28 15:52:42;;;;;;;;;;;;;;;;;;5024265;28;19922;-92
2022/08/28 15:55:10;;;;;;;;;;;;;;;;;;5026958;28;19925;-92
2022/08/28 15:57:37;;;;;;;;;;;;;;;;;;5025172;28;19967;-93
2022/08/28 16:00:04;;;;;;;;;;;;;;;;;;5021213;28;20356;-91
2022/08/28 16:02:30;;;;;;;;;;;;;;;;;;5023505;28;19918;-91
2022/08/28 16:04:57;;;;;;;;;;;;;;;;;;5021133;28;19928;-91
2022/08/28 16:07:23;;;;;;;;;;;;;;;;;;5036684;28;19918;-91
2022/08/28 16:09:49;;;;;;;;;;;;;;;;;;5021457;28;19967;-94
2022/08/28 16:12:15;;;;;;;;;;;;;;;;;;5020240;28;19917;-92
2022/08/28 16:14:41;;;;;;;;;;;;;;;;;;5020222;28;19973;-91
2022/08/28 16:17:09;;;;;;;;;;;;;;;;;;5021342;28;19949;-90
2022/08/28 16:19:34;;;;;;;;;;;;;;;;;;5019500;28;19925;-92
2022/08/28 16:22:02;;;;;;;;;;;;;;;;;;5019266;28;19914;-93
2022/08/28 16:24:28;;;;;;;;;;;;;;;;;;5019176;28;19925;-92
2022/08/28 16:26:54;;;;;;;;;;;;;;;;;;5016943;28;19917;-92
2022/08/28 16:29:20;;;;;;;;;;;;;;;;;;5016052;28;19922;-91
2022/08/28 16:34:41;;;;;;;;;;;;;;;;;;5359751;23;19925;-91
2022/08/28 16:37:06;;;;;;;;;;;;;;;;;;5015109;28;20008;-91
2022/08/28 16:39:32;;;;;;;;;;;;;;;;;;5016313;28;19918;-91
2022/08/28 16:41:57;;;;;;;;;;;;;;;;;;5016077;28;19917;-92
2022/08/28 16:44:26;;;;;;;;;;;;;;;;;;5015830;28;19924;-91
2022/08/28 16:46:53;;;;;;;;;;;;;;;;;;5015946;28;19918;-90
2022/08/28 16:49:18;;;;;;;;;;;;;;;;;;5015599;28;19920;-90
2022/08/28 16:51:44;;;;;;;;;;;;;;;;;;5016093;28;20280;-92
2022/08/28 16:54:09;;;;;;;;;;;;;;;;;;5030797;28;19918;-90
2022/08/28 16:56:35;;;;;;;;;;;;;;;;;;5015565;28;20113;-91
2022/08/28 16:59:00;;;;;;;;;;;;;;;;;;5015662;28;20352;-92
2022/08/28 17:01:26;;;;;;;;;;;;;;;;;;5015470;28;20376;-91
2022/08/28 17:03:53;;;;;;;;;;;;;;;;;;5030665;28;19918;-90
2022/08/28 17:06:22;;;;;;;;;;;;;;;;;;5015397;28;19917;-92
2022/08/28 17:08:47;;;;;;;;;;;;;;;;;;5013811;28;19924;-91
2022/08/28 17:11:13;;;;;;;;;;;;;;;;;;5015314;28;19917;-92
2022/08/28 17:13:39;;;;;;;;;;;;;;;;;;5015384;28;19921;-90
2022/08/28 17:16:04;;;;;;;;;;;;;;;;;;5015361;28;19924;-90
2022/08/28 17:18:30;;;;;;;;;;;;;;;;;;5015113;28;20333;-90
2022/08/28 17:23:41;;;;;;;;;;;;;;;;;;5015078;28;19940;-91
2022/08/28 17:26:07;;;;;;;;;;;;;;;;;;5015040;28;20004;-92
2022/08/28 17:28:32;;;;;;;;;;;;;;;;;;5015337;28;19956;-92
2022/08/28 17:30:59;;;;;;;;;;;;;;;;;;5014969;28;19960;-92
2022/08/28 17:33:25;;;;;;;;;;;;;;;;;;5014675;28;19922;-91
2022/08/28 17:35:53;;;;;;;;;;;;;;;;;;5014841;28;19924;-92
2022/08/28 17:38:19;;;;;;;;;;;;;;;;;;5014804;28;20349;-90
2022/08/28 17:40:45;;;;;;;;;;;;;;;;;;5030038;28;19957;-90
2022/08/28 17:43:10;;;;;;;;;;;;;;;;;;5013358;28;19917;-92
2022/08/28 17:45:36;;;;;;;;;;;;;;;;;;5014674;28;19952;-91
2022/08/28 17:48:01;;;;;;;;;;;;;;;;;;5014765;28;19917;-90
2022/08/28 17:50:26;;;;;;;;;;;;;;;;;;5014793;28;20344;-91
2022/08/28 17:52:52;;;;;;;;;;;;;;;;;;5014826;28;20019;-90
2022/08/28 17:55:18;;;;;;;;;;;;;;;;;;5015243;28;19971;-90
2022/08/28 17:57:43;;;;;;;;;;;;;;;;;;5013766;28;19963;-93
2022/08/28 18:00:09;;;;;;;;;;;;;;;;;;5015408;28;19928;-92
2022/08/28 18:02:35;;;;;;;;;;;;;;;;;;5015140;28;19921;-93
2022/08/28 18:05:00;;;;;;;;;;;;;;;;;;5015099;28;20268;-90
2022/08/28 18:07:27;;;;;;;;;;;;;;;;;;5014999;28;19964;-91
2022/08/28 18:09:52;;;;;;;;;;;;;;;;;;5015039;28;19989;-92
2022/08/28 18:12:18;;;;;;;;;;;;;;;;;;5030006;28;19972;-93
2022/08/28 18:14:44;;;;;;;;;;;;;;;;;;5015106;28;19921;-93
2022/08/28 18:17:10;;;;;;;;;;;;;;;;;;5013392;28;19924;-92